sensor_id;sensor_type;location;lat;lon;timestamp;temperature;humidity
47626;DHT22;33342;45.574;9.252;2023-04-01T00:00:03;12.40;99.90
47626;DHT22;33342;45.574;9.252;2023-04-01T00:02:37;12.40;99.90
47626;DHT22;33342;45.574;9.252;2023-04-01T00:05:05;12.40;99.90
47626;DHT22;33342;45.574;9.252;2023-04-01T00:07:32;12.40;99.90
47626;DHT22;33342;45.574;9.252;2023-04-01T00:09:59;12.30;99.90
47626;DHT22;33342;45.574;9.252;2023-04-01T00:12:26;12.30;99.90
47626;DHT22;33342;45.574;9.252;2023-04-01T00:14:53;12.20;99.90
47626;DHT22;33342;45.574;9.252;2023-04-01T00:17:20;12.20;99.90
47626;DHT22;33342;45.574;9.252;2023-04-01T00:19:48;12.20;99.90
47626;DHT22;33342;45.574;9.252;2023-04-01T00:22:15;12.10;99.90
47626;DHT22;33342;45.574;9.252;2023-04-01T00:24:42;12.10;99.90
47626;DHT22;33342;45.574;9.252;2023-04-01T00:27:09;12.10;99.90
47626;DHT22;33342;45.574;9.252;2023-04-01T00:29:36;12.10;99.90
47626;DHT22;33342;45.574;9.252;2023-04-01T00:32:03;12.10;99.90
47626;DHT22;33342;45.574;9.252;2023-04-01T00:34:30;12.10;99.90
47626;DHT22;33342;45.574;9.252;2023-04-01T00:36:57;12.10;99.90
47626;DHT22;33342;45.574;9.252;2023-04-01T00:39:24;12.00;99.90
47626;DHT22;33342;45.574;9.252;2023-04-01T00:41:51;12.00;99.90
47626;DHT22;33342;45.574;9.252;2023-04-01T00:44:22;12.00;99.90
47626;DHT22;33342;45.574;9.252;2023-04-01T00:46:49;12.00;99.90
47626;DHT22;33342;45.574;9.252;2023-04-01T00:49:19;12.00;99.90
47626;DHT22;33342;45.574;9.252;2023-04-01T00:51:49;11.90;99.90
47626;DHT22;33342;45.574;9.252;2023-04-01T00:54:18;12.00;99.90
47626;DHT22;33342;45.574;9.252;2023-04-01T00:56:56;11.90;99.90
47626;DHT22;33342;45.574;9.252;2023-04-01T00:59:33;11.80;99.90
47626;DHT22;33342;45.574;9.252;2023-04-01T01:02:02;11.80;99.90
47626;DHT22;33342;45.574;9.252;2023-04-01T01:04:32;11.70;99.90
47626;DHT22;33342;45.574;9.252;2023-04-01T01:10:00;11.70;99.90
47626;DHT22;33342;45.574;9.252;2023-04-01T01:12:54;11.60;99.90
47626;DHT22;33342;45.574;9.252;2023-04-01T01:15:29;11.50;99.90
47626;DHT22;33342;45.574;9.252;2023-04-01T01:24:08;11.40;99.90
47626;DHT22;33342;45.574;9.252;2023-04-01T01:27:03;11.40;99.90
47626;DHT22;33342;45.574;9.252;2023-04-01T01:35:35;11.40;99.90
47626;DHT22;33342;45.574;9.252;2023-04-01T01:38:14;11.40;99.90
47626;DHT22;33342;45.574;9.252;2023-04-01T01:40:49;11.40;99.90
47626;DHT22;33342;45.574;9.252;2023-04-01T01:43:25;11.40;99.90
47626;DHT22;33342;45.574;9.252;2023-04-01T01:45:57;11.40;99.90
47626;DHT22;33342;45.574;9.252;2023-04-01T01:48:26;11.40;99.90
47626;DHT22;33342;45.574;9.252;2023-04-01T01:50:54;11.30;99.90
47626;DHT22;33342;45.574;9.252;2023-04-01T01:53:21;11.30;99.90
47626;DHT22;33342;45.574;9.252;2023-04-01T01:55:49;11.30;99.90
47626;DHT22;33342;45.574;9.252;2023-04-01T02:00:54;11.30;99.90
47626;DHT22;33342;45.574;9.252;2023-04-01T02:03:25;11.30;99.90
47626;DHT22;33342;45.574;9.252;2023-04-01T02:05:56;11.30;99.90
47626;DHT22;33342;45.574;9.252;2023-04-01T02:11:09;11.30;99.90
47626;DHT22;33342;45.574;9.252;2023-04-01T02:13:41;11.20;99.90
47626;DHT22;33342;45.574;9.252;2023-04-01T02:16:16;11.20;99.90
47626;DHT22;33342;45.574;9.252;2023-04-01T02:18:48;11.20;99.90
47626;DHT22;33342;45.574;9.252;2023-04-01T02:21:18;11.10;99.90
47626;DHT22;33342;45.574;9.252;2023-04-01T02:23:47;11.10;99.90
47626;DHT22;33342;45.574;9.252;2023-04-01T02:26:14;11.10;99.90
47626;DHT22;33342;45.574;9.252;2023-04-01T02:28:42;11.00;99.90
47626;DHT22;33342;45.574;9.252;2023-04-01T02:31:12;11.00;99.90
47626;DHT22;33342;45.574;9.252;2023-04-01T02:33:41;11.00;99.90
47626;DHT22;33342;45.574;9.252;2023-04-01T02:36:13;11.00;99.90
47626;DHT22;33342;45.574;9.252;2023-04-01T02:38:43;11.00;99.90
47626;DHT22;33342;45.574;9.252;2023-04-01T02:41:11;10.90;99.90
47626;DHT22;33342;45.574;9.252;2023-04-01T02:43:38;10.90;99.90
47626;DHT22;33342;45.574;9.252;2023-04-01T02:46:06;10.90;99.90
47626;DHT22;33342;45.574;9.252;2023-04-01T02:48:33;10.90;99.90
47626;DHT22;33342;45.574;9.252;2023-04-01T02:51:00;10.90;99.90
47626;DHT22;33342;45.574;9.252;2023-04-01T02:53:27;10.90;99.90
47626;DHT22;33342;45.574;9.252;2023-04-01T02:55:54;11.00;99.90
47626;DHT22;33342;45.574;9.252;2023-04-01T02:58:22;11.00;99.90
47626;DHT22;33342;45.574;9.252;2023-04-01T03:00:49;11.00;99.90
47626;DHT22;33342;45.574;9.252;2023-04-01T03:03:16;10.90;99.90
47626;DHT22;33342;45.574;9.252;2023-04-01T03:05:43;10.90;99.90
47626;DHT22;33342;45.574;9.252;2023-04-01T03:08:10;10.90;99.90
47626;DHT22;33342;45.574;9.252;2023-04-01T03:10:38;11.00;99.90
47626;DHT22;33342;45.574;9.252;2023-04-01T03:13:06;11.00;99.90
47626;DHT22;33342;45.574;9.252;2023-04-01T03:15:33;11.00;99.90
47626;DHT22;33342;45.574;9.252;2023-04-01T03:18:00;11.00;99.90
47626;DHT22;33342;45.574;9.252;2023-04-01T03:20:27;11.00;99.90
47626;DHT22;33342;45.574;9.252;2023-04-01T03:22:54;11.00;99.90
47626;DHT22;33342;45.574;9.252;2023-04-01T03:25:21;11.00;99.90
47626;DHT22;33342;45.574;9.252;2023-04-01T03:27:49;11.00;99.90
47626;DHT22;33342;45.574;9.252;2023-04-01T03:30:16;11.00;99.90
47626;DHT22;33342;45.574;9.252;2023-04-01T03:32:49;11.00;99.90
47626;DHT22;33342;45.574;9.252;2023-04-01T03:35:16;11.00;99.90
47626;DHT22;33342;45.574;9.252;2023-04-01T03:37:45;11.00;99.90
47626;DHT22;33342;45.574;9.252;2023-04-01T03:40:12;11.00;99.90
47626;DHT22;33342;45.574;9.252;2023-04-01T03:42:39;11.00;99.90
47626;DHT22;33342;45.574;9.252;2023-04-01T03:45:06;11.10;99.90
47626;DHT22;33342;45.574;9.252;2023-04-01T03:47:33;11.00;99.90
47626;DHT22;33342;45.574;9.252;2023-04-01T03:50:01;11.00;99.90
47626;DHT22;33342;45.574;9.252;2023-04-01T03:52:28;11.00;99.90
47626;DHT22;33342;45.574;9.252;2023-04-01T03:54:55;11.00;99.90
47626;DHT22;33342;45.574;9.252;2023-04-01T03:57:22;11.00;99.90
47626;DHT22;33342;45.574;9.252;2023-04-01T03:59:50;11.00;99.90
47626;DHT22;33342;45.574;9.252;2023-04-01T04:02:17;11.00;99.90
47626;DHT22;33342;45.574;9.252;2023-04-01T04:04:45;11.00;99.90
47626;DHT22;33342;45.574;9.252;2023-04-01T04:07:13;10.90;99.90
47626;DHT22;33342;45.574;9.252;2023-04-01T04:09:58;10.90;99.90
47626;DHT22;33342;45.574;9.252;2023-04-01T04:12:25;10.80;99.90
47626;DHT22;33342;45.574;9.252;2023-04-01T04:14:53;10.70;99.90
47626;DHT22;33342;45.574;9.252;2023-04-01T04:17:21;10.70;99.90
47626;DHT22;33342;45.574;9.252;2023-04-01T04:19:48;10.70;99.90
47626;DHT22;33342;45.574;9.252;2023-04-01T04:22:15;10.70;99.90
47626;DHT22;33342;45.574;9.252;2023-04-01T04:24:42;10.80;99.90
47626;DHT22;33342;45.574;9.252;2023-04-01T04:27:12;10.80;99.90
47626;DHT22;33342;45.574;9.252;2023-04-01T04:29:51;10.80;99.90
47626;DHT22;33342;45.574;9.252;2023-04-01T04:32:18;10.90;99.90
47626;DHT22;33342;45.574;9.252;2023-04-01T04:34:45;10.90;99.90
47626;DHT22;33342;45.574;9.252;2023-04-01T04:37:12;10.90;99.90
47626;DHT22;33342;45.574;9.252;2023-04-01T04:39:39;10.90;99.90
47626;DHT22;33342;45.574;9.252;2023-04-01T04:42:06;10.90;99.90
47626;DHT22;33342;45.574;9.252;2023-04-01T04:44:33;10.80;99.90
47626;DHT22;33342;45.574;9.252;2023-04-01T04:47:01;10.80;99.90
47626;DHT22;33342;45.574;9.252;2023-04-01T04:49:28;10.70;99.90
47626;DHT22;33342;45.574;9.252;2023-04-01T04:51:55;10.70;99.90
47626;DHT22;33342;45.574;9.252;2023-04-01T04:54:26;10.70;99.90
47626;DHT22;33342;45.574;9.252;2023-04-01T04:56:58;10.60;99.90
47626;DHT22;33342;45.574;9.252;2023-04-01T04:59:28;10.60;99.90
47626;DHT22;33342;45.574;9.252;2023-04-01T05:02:15;10.70;99.90
47626;DHT22;33342;45.574;9.252;2023-04-01T05:04:42;10.70;99.90
47626;DHT22;33342;45.574;9.252;2023-04-01T05:07:10;10.70;99.90
47626;DHT22;33342;45.574;9.252;2023-04-01T05:09:38;10.60;99.90
47626;DHT22;33342;45.574;9.252;2023-04-01T05:12:05;10.60;99.90
47626;DHT22;33342;45.574;9.252;2023-04-01T05:14:52;10.60;99.90
47626;DHT22;33342;45.574;9.252;2023-04-01T05:17:19;10.60;99.90
47626;DHT22;33342;45.574;9.252;2023-04-01T05:19:46;10.60;99.90
47626;DHT22;33342;45.574;9.252;2023-04-01T05:22:14;10.50;99.90
47626;DHT22;33342;45.574;9.252;2023-04-01T05:24:42;10.50;99.90
47626;DHT22;33342;45.574;9.252;2023-04-01T05:27:10;10.50;99.90
47626;DHT22;33342;45.574;9.252;2023-04-01T05:29:39;10.50;99.90
47626;DHT22;33342;45.574;9.252;2023-04-01T05:32:11;10.50;99.90
47626;DHT22;33342;45.574;9.252;2023-04-01T05:34:38;10.60;99.90
47626;DHT22;33342;45.574;9.252;2023-04-01T05:37:05;10.60;99.90
47626;DHT22;33342;45.574;9.252;2023-04-01T05:39:39;10.70;99.90
47626;DHT22;33342;45.574;9.252;2023-04-01T05:42:07;10.70;99.90
47626;DHT22;33342;45.574;9.252;2023-04-01T05:44:35;10.70;99.90
47626;DHT22;33342;45.574;9.252;2023-04-01T05:47:03;10.70;99.90
47626;DHT22;33342;45.574;9.252;2023-04-01T05:49:32;10.70;99.90
47626;DHT22;33342;45.574;9.252;2023-04-01T05:52:00;10.60;99.90
47626;DHT22;33342;45.574;9.252;2023-04-01T05:54:28;10.70;99.90
47626;DHT22;33342;45.574;9.252;2023-04-01T05:56:55;10.70;99.90
47626;DHT22;33342;45.574;9.252;2023-04-01T05:59:22;10.70;99.90
47626;DHT22;33342;45.574;9.252;2023-04-01T06:01:49;10.70;99.90
47626;DHT22;33342;45.574;9.252;2023-04-01T06:04:18;10.70;99.90
47626;DHT22;33342;45.574;9.252;2023-04-01T06:06:45;10.70;99.90
47626;DHT22;33342;45.574;9.252;2023-04-01T06:09:18;10.80;99.90
47626;DHT22;33342;45.574;9.252;2023-04-01T06:23:05;10.70;99.90
47626;DHT22;33342;45.574;9.252;2023-04-01T06:25:52;10.70;99.90
47626;DHT22;33342;45.574;9.252;2023-04-01T06:31:26;10.70;99.90
47626;DHT22;33342;45.574;9.252;2023-04-01T06:39:30;10.70;99.90
47626;DHT22;33342;45.574;9.252;2023-04-01T06:42:17;10.80;99.90
47626;DHT22;33342;45.574;9.252;2023-04-01T06:54:46;11.00;99.90
47626;DHT22;33342;45.574;9.252;2023-04-01T06:57:46;11.00;99.90
47626;DHT22;33342;45.574;9.252;2023-04-01T07:00:30;11.10;99.90
47626;DHT22;33342;45.574;9.252;2023-04-01T07:03:06;11.10;99.90
47626;DHT22;33342;45.574;9.252;2023-04-01T07:05:36;11.20;99.90
47626;DHT22;33342;45.574;9.252;2023-04-01T07:08:06;11.20;99.90
47626;DHT22;33342;45.574;9.252;2023-04-01T07:13:58;11.30;99.90
47626;DHT22;33342;45.574;9.252;2023-04-01T07:16:56;11.40;99.90
47626;DHT22;33342;45.574;9.252;2023-04-01T07:25:37;11.50;99.90
47626;DHT22;33342;45.574;9.252;2023-04-01T07:28:30;11.60;99.90
47626;DHT22;33342;45.574;9.252;2023-04-01T07:34:01;11.70;99.90
47626;DHT22;33342;45.574;9.252;2023-04-01T07:36:45;11.70;99.90
47626;DHT22;33342;45.574;9.252;2023-04-01T07:48:27;11.90;99.90
47626;DHT22;33342;45.574;9.252;2023-04-01T07:54:13;12.10;99.90
47626;DHT22;33342;45.574;9.252;2023-04-01T07:57:04;12.10;99.90
47626;DHT22;33342;45.574;9.252;2023-04-01T08:02:48;12.20;99.90
47626;DHT22;33342;45.574;9.252;2023-04-01T08:05:28;12.20;99.90
47626;DHT22;33342;45.574;9.252;2023-04-01T08:21:02;12.50;99.90
47626;DHT22;33342;45.574;9.252;2023-04-01T08:23:37;12.60;99.90
47626;DHT22;33342;45.574;9.252;2023-04-01T08:26:12;12.60;99.90
47626;DHT22;33342;45.574;9.252;2023-04-01T08:34:03;12.80;99.90
47626;DHT22;33342;45.574;9.252;2023-04-01T08:36:39;12.80;99.90
47626;DHT22;33342;45.574;9.252;2023-04-01T08:39:23;12.90;99.90
47626;DHT22;33342;45.574;9.252;2023-04-01T08:45:11;12.90;99.90
47626;DHT22;33342;45.574;9.252;2023-04-01T08:48:14;13.00;99.90
47626;DHT22;33342;45.574;9.252;2023-04-01T08:56:22;13.10;99.90
47626;DHT22;33342;45.574;9.252;2023-04-01T08:59:16;13.20;99.90
47626;DHT22;33342;45.574;9.252;2023-04-01T09:31:17;14.00;99.90
47626;DHT22;33342;45.574;9.252;2023-04-01T09:37:38;14.20;99.90
47626;DHT22;33342;45.574;9.252;2023-04-01T09:40:24;14.30;99.90
47626;DHT22;33342;45.574;9.252;2023-04-01T09:43:21;14.40;99.90
47626;DHT22;33342;45.574;9.252;2023-04-01T10:03:58;14.90;99.90
47626;DHT22;33342;45.574;9.252;2023-04-01T10:15:01;15.10;99.90
47626;DHT22;33342;45.574;9.252;2023-04-01T10:17:43;15.20;99.90
47626;DHT22;33342;45.574;9.252;2023-04-01T10:20:28;15.30;99.90
47626;DHT22;33342;45.574;9.252;2023-04-01T10:28:56;15.50;99.90
47626;DHT22;33342;45.574;9.252;2023-04-01T10:32:21;15.50;99.90
47626;DHT22;33342;45.574;9.252;2023-04-01T10:46:33;15.80;99.90
47626;DHT22;33342;45.574;9.252;2023-04-01T10:58:48;15.90;99.90
47626;DHT22;33342;45.574;9.252;2023-04-01T11:16:43;16.30;99.90
47626;DHT22;33342;45.574;9.252;2023-04-01T11:52:28;16.80;99.90
47626;DHT22;33342;45.574;9.252;2023-04-01T11:55:18;16.80;99.90
47626;DHT22;33342;45.574;9.252;2023-04-01T12:06:08;17.10;99.90
47626;DHT22;33342;45.574;9.252;2023-04-01T12:14:44;17.40;99.90
47626;DHT22;33342;45.574;9.252;2023-04-01T12:32:02;17.80;99.90
47626;DHT22;33342;45.574;9.252;2023-04-01T12:35:39;17.90;99.90
47626;DHT22;33342;45.574;9.252;2023-04-01T12:37:45;18.00;99.90
47626;DHT22;33342;45.574;9.252;2023-04-01T12:43:14;18.10;99.90
47626;DHT22;33342;45.574;9.252;2023-04-01T12:48:42;18.20;99.90
47626;DHT22;33342;45.574;9.252;2023-04-01T12:51:34;18.20;99.90
47626;DHT22;33342;45.574;9.252;2023-04-01T12:56:56;18.30;99.90
47626;DHT22;33342;45.574;9.252;2023-04-01T13:02:49;18.40;99.90
47626;DHT22;33342;45.574;9.252;2023-04-01T13:11:18;18.50;99.90
47626;DHT22;33342;45.574;9.252;2023-04-01T13:22:17;18.40;99.90
47626;DHT22;33342;45.574;9.252;2023-04-01T13:41:18;18.70;99.90
47626;DHT22;33342;45.574;9.252;2023-04-01T13:44:01;18.80;99.90
47626;DHT22;33342;45.574;9.252;2023-04-01T13:55:14;19.00;99.90
47626;DHT22;33342;45.574;9.252;2023-04-01T14:29:16;19.60;99.90
47626;DHT22;33342;45.574;9.252;2023-04-01T14:40:05;19.70;99.90
47626;DHT22;33342;45.574;9.252;2023-04-01T14:48:39;19.80;99.90
47626;DHT22;33342;45.574;9.252;2023-04-01T14:51:23;19.90;99.90
47626;DHT22;33342;45.574;9.252;2023-04-01T14:54:17;20.00;99.90
47626;DHT22;33342;45.574;9.252;2023-04-01T14:57:29;20.00;99.90
47626;DHT22;33342;45.574;9.252;2023-04-01T15:00:01;20.10;99.90
47626;DHT22;33342;45.574;9.252;2023-04-01T15:05:45;20.10;99.90
47626;DHT22;33342;45.574;9.252;2023-04-01T15:08:30;20.10;99.90
47626;DHT22;33342;45.574;9.252;2023-04-01T15:14:13;20.20;99.90
47626;DHT22;33342;45.574;9.252;2023-04-01T15:23:23;20.90;99.90
47626;DHT22;33342;45.574;9.252;2023-04-01T15:45:18;22.70;99.90
47626;DHT22;33342;45.574;9.252;2023-04-01T15:48:27;22.70;99.90
47626;DHT22;33342;45.574;9.252;2023-04-01T15:53:49;22.50;99.90
47626;DHT22;33342;45.574;9.252;2023-04-01T15:59:52;22.20;99.90
47626;DHT22;33342;45.574;9.252;2023-04-01T16:02:34;22.00;99.90
47626;DHT22;33342;45.574;9.252;2023-04-01T16:10:48;21.90;99.90
47626;DHT22;33342;45.574;9.252;2023-04-01T16:19:26;22.20;99.90
47626;DHT22;33342;45.574;9.252;2023-04-01T16:22:53;22.40;99.90
47626;DHT22;33342;45.574;9.252;2023-04-01T16:25:29;22.60;99.90
47626;DHT22;33342;45.574;9.252;2023-04-01T16:34:20;22.90;99.90
47626;DHT22;33342;45.574;9.252;2023-04-01T16:42:58;22.90;99.90
47626;DHT22;33342;45.574;9.252;2023-04-01T16:45:53;22.90;99.90
47626;DHT22;33342;45.574;9.252;2023-04-01T16:48:28;22.80;99.90
47626;DHT22;33342;45.574;9.252;2023-04-01T16:51:13;22.60;99.90
47626;DHT22;33342;45.574;9.252;2023-04-01T16:53:43;22.40;99.90
47626;DHT22;33342;45.574;9.252;2023-04-01T16:56:24;22.20;99.90
47626;DHT22;33342;45.574;9.252;2023-04-01T16:58:58;21.90;99.90
47626;DHT22;33342;45.574;9.252;2023-04-01T17:01:45;21.70;99.90
47626;DHT22;33342;45.574;9.252;2023-04-01T17:16:15;20.90;99.90
47626;DHT22;33342;45.574;9.252;2023-04-01T17:21:57;20.70;99.90
47626;DHT22;33342;45.574;9.252;2023-04-01T17:24:42;20.50;99.90
47626;DHT22;33342;45.574;9.252;2023-04-01T17:30:29;20.30;99.90
47626;DHT22;33342;45.574;9.252;2023-04-01T17:35:30;20.20;99.90
47626;DHT22;33342;45.574;9.252;2023-04-01T17:43:49;19.90;99.90
47626;DHT22;33342;45.574;9.252;2023-04-01T17:46:37;19.90;99.90
47626;DHT22;33342;45.574;9.252;2023-04-01T17:57:45;19.60;99.90
47626;DHT22;33342;45.574;9.252;2023-04-01T18:02:53;19.40;99.90
47626;DHT22;33342;45.574;9.252;2023-04-01T18:05:42;19.30;99.90
47626;DHT22;33342;45.574;9.252;2023-04-01T18:11:11;19.30;99.90
47626;DHT22;33342;45.574;9.252;2023-04-01T18:19:05;19.10;99.90
47626;DHT22;33342;45.574;9.252;2023-04-01T18:24:28;19.00;99.90
47626;DHT22;33342;45.574;9.252;2023-04-01T18:27:09;19.00;99.90
47626;DHT22;33342;45.574;9.252;2023-04-01T18:30:07;19.00;99.90
47626;DHT22;33342;45.574;9.252;2023-04-01T18:32:57;18.90;99.90
47626;DHT22;33342;45.574;9.252;2023-04-01T18:38:31;18.80;99.90
47626;DHT22;33342;45.574;9.252;2023-04-01T18:43:32;18.80;99.90
47626;DHT22;33342;45.574;9.252;2023-04-01T18:49:29;18.70;99.90
47626;DHT22;33342;45.574;9.252;2023-04-01T18:57:47;18.60;99.90
47626;DHT22;33342;45.574;9.252;2023-04-01T19:03:16;18.50;99.90
47626;DHT22;33342;45.574;9.252;2023-04-01T19:05:49;18.50;99.90
47626;DHT22;33342;45.574;9.252;2023-04-01T19:08:33;18.50;99.90
47626;DHT22;33342;45.574;9.252;2023-04-01T19:20:32;18.30;99.90
47626;DHT22;33342;45.574;9.252;2023-04-01T19:25:55;18.30;99.90
47626;DHT22;33342;45.574;9.252;2023-04-01T19:47:39;17.90;99.90
47626;DHT22;33342;45.574;9.252;2023-04-01T19:52:53;17.90;99.90
47626;DHT22;33342;45.574;9.252;2023-04-01T19:58:31;17.80;99.90
47626;DHT22;33342;45.574;9.252;2023-04-01T20:01:00;17.80;99.90
47626;DHT22;33342;45.574;9.252;2023-04-01T20:06:18;17.70;99.90
47626;DHT22;33342;45.574;9.252;2023-04-01T20:14:50;17.70;99.90
47626;DHT22;33342;45.574;9.252;2023-04-01T20:17:24;17.60;99.90
47626;DHT22;33342;45.574;9.252;2023-04-01T20:20:01;17.60;99.90
47626;DHT22;33342;45.574;9.252;2023-04-01T20:25:22;17.60;99.90
47626;DHT22;33342;45.574;9.252;2023-04-01T20:27:55;17.50;99.90
47626;DHT22;33342;45.574;9.252;2023-04-01T20:30:53;17.50;99.90
47626;DHT22;33342;45.574;9.252;2023-04-01T20:36:34;17.40;99.90
47626;DHT22;33342;45.574;9.252;2023-04-01T20:44:20;17.30;99.90
47626;DHT22;33342;45.574;9.252;2023-04-01T20:46:54;17.20;99.90
47626;DHT22;33342;45.574;9.252;2023-04-01T20:52:41;17.10;99.90
47626;DHT22;33342;45.574;9.252;2023-04-01T20:58:06;17.10;99.90
47626;DHT22;33342;45.574;9.252;2023-04-01T21:06:49;17.00;99.90
47626;DHT22;33342;45.574;9.252;2023-04-01T21:14:49;16.90;99.90
47626;DHT22;33342;45.574;9.252;2023-04-01T21:29:05;16.70;99.90
47626;DHT22;33342;45.574;9.252;2023-04-01T21:37:42;16.70;99.90
47626;DHT22;33342;45.574;9.252;2023-04-01T21:40:41;16.60;99.90
47626;DHT22;33342;45.574;9.252;2023-04-01T21:43:24;16.60;99.90
47626;DHT22;33342;45.574;9.252;2023-04-01T22:00:31;16.50;99.90
47626;DHT22;33342;45.574;9.252;2023-04-01T22:11:22;16.50;99.90
47626;DHT22;33342;45.574;9.252;2023-04-01T22:16:57;16.50;99.90
47626;DHT22;33342;45.574;9.252;2023-04-01T22:25:42;16.40;99.90
47626;DHT22;33342;45.574;9.252;2023-04-01T22:30:52;16.30;99.90
47626;DHT22;33342;45.574;9.252;2023-04-01T22:33:51;16.20;99.90
47626;DHT22;33342;45.574;9.252;2023-04-01T22:55:46;15.70;99.90
47626;DHT22;33342;45.574;9.252;2023-04-01T22:58:31;15.70;99.90
47626;DHT22;33342;45.574;9.252;2023-04-01T23:01:04;15.70;99.90
47626;DHT22;33342;45.574;9.252;2023-04-01T23:03:34;15.80;99.90
47626;DHT22;33342;45.574;9.252;2023-04-01T23:06:04;15.80;99.90
47626;DHT22;33342;45.574;9.252;2023-04-01T23:09:01;15.80;99.90
47626;DHT22;33342;45.574;9.252;2023-04-01T23:11:35;15.80;99.90
47626;DHT22;33342;45.574;9.252;2023-04-01T23:20:01;15.70;99.90
47626;DHT22;33342;45.574;9.252;2023-04-01T23:33:21;15.60;99.90
47626;DHT22;33342;45.574;9.252;2023-04-01T23:36:23;15.60;99.90
47626;DHT22;33342;45.574;9.252;2023-04-01T23:38:47;15.60;99.90
47626;DHT22;33342;45.574;9.252;2023-04-01T23:41:27;15.60;99.90
47626;DHT22;33342;45.574;9.252;2023-04-01T23:44:03;15.60;99.90
47626;DHT22;33342;45.574;9.252;2023-04-01T23:46:32;15.50;99.90
47626;DHT22;33342;45.574;9.252;2023-04-01T23:49:01;15.50;99.90
47626;DHT22;33342;45.574;9.252;2023-04-01T23:51:36;15.50;99.90
47626;DHT22;33342;45.574;9.252;2023-04-01T23:54:19;15.50;99.90
47626;DHT22;33342;45.574;9.252;2023-04-01T23:56:55;15.50;99.90
47626;DHT22;33342;45.574;9.252;2023-04-01T23:59:30;15.50;99.90
